sensor_id;sensor_type;location;lat;lon;timestamp;P1;durP1;ratioP1;P2;durP2;ratioP2
71162;SDS011;58858;50.948;6.566;2024-02-26T00:04:41;0.93;;;0.80;;
71162;SDS011;58858;50.948;6.566;2024-02-26T00:14:42;2.28;;;0.70;;
71162;SDS011;58858;50.948;6.566;2024-02-26T00:24:43;1.70;;;0.63;;
71162;SDS011;58858;50.948;6.566;2024-02-26T00:34:44;1.50;;;1.13;;
71162;SDS011;58858;50.948;6.566;2024-02-26T00:44:45;2.17;;;0.73;;
71162;SDS011;58858;50.948;6.566;2024-02-26T00:54:46;2.42;;;1.00;;
71162;SDS011;58858;50.948;6.566;2024-02-26T01:04:48;1.88;;;0.90;;
71162;SDS011;58858;50.948;6.566;2024-02-26T01:14:49;0.77;;;0.73;;
71162;SDS011;58858;50.948;6.566;2024-02-26T01:24:50;1.58;;;0.80;;
71162;SDS011;58858;50.948;6.566;2024-02-26T01:34:51;1.95;;;0.75;;
71162;SDS011;58858;50.948;6.566;2024-02-26T01:44:52;1.20;;;0.70;;
71162;SDS011;58858;50.948;6.566;2024-02-26T01:54:53;1.63;;;0.60;;
71162;SDS011;58858;50.948;6.566;2024-02-26T02:04:54;0.75;;;0.45;;
71162;SDS011;58858;50.948;6.566;2024-02-26T02:14:55;1.35;;;0.70;;
71162;SDS011;58858;50.948;6.566;2024-02-26T02:24:56;2.45;;;1.15;;
71162;SDS011;58858;50.948;6.566;2024-02-26T02:34:58;0.80;;;0.60;;
71162;SDS011;58858;50.948;6.566;2024-02-26T02:44:59;1.92;;;0.98;;
71162;SDS011;58858;50.948;6.566;2024-02-26T02:55:00;2.30;;;0.52;;
71162;SDS011;58858;50.948;6.566;2024-02-26T03:05:04;0.93;;;0.50;;
71162;SDS011;58858;50.948;6.566;2024-02-26T03:15:06;3.00;;;0.60;;
71162;SDS011;58858;50.948;6.566;2024-02-26T03:25:07;1.70;;;0.50;;
71162;SDS011;58858;50.948;6.566;2024-02-26T03:35:08;0.95;;;0.70;;
71162;SDS011;58858;50.948;6.566;2024-02-26T03:45:10;1.10;;;0.47;;
71162;SDS011;58858;50.948;6.566;2024-02-26T03:55:11;0.80;;;0.60;;
71162;SDS011;58858;50.948;6.566;2024-02-26T04:05:12;1.00;;;0.63;;
71162;SDS011;58858;50.948;6.566;2024-02-26T04:15:14;1.08;;;0.60;;
71162;SDS011;58858;50.948;6.566;2024-02-26T04:25:15;0.60;;;0.40;;
71162;SDS011;58858;50.948;6.566;2024-02-26T04:35:17;2.05;;;0.90;;
71162;SDS011;58858;50.948;6.566;2024-02-26T04:45:18;1.83;;;0.70;;
71162;SDS011;58858;50.948;6.566;2024-02-26T04:55:19;1.63;;;0.88;;
71162;SDS011;58858;50.948;6.566;2024-02-26T05:05:20;0.80;;;0.80;;
71162;SDS011;58858;50.948;6.566;2024-02-26T05:15:21;3.58;;;1.02;;
71162;SDS011;58858;50.948;6.566;2024-02-26T05:25:22;1.83;;;0.60;;
71162;SDS011;58858;50.948;6.566;2024-02-26T05:35:23;3.13;;;1.40;;
71162;SDS011;58858;50.948;6.566;2024-02-26T05:45:26;1.90;;;1.10;;
71162;SDS011;58858;50.948;6.566;2024-02-26T05:55:27;1.25;;;0.80;;
71162;SDS011;58858;50.948;6.566;2024-02-26T06:05:28;1.77;;;1.08;;
71162;SDS011;58858;50.948;6.566;2024-02-26T06:15:29;2.58;;;1.10;;
71162;SDS011;58858;50.948;6.566;2024-02-26T06:25:30;2.03;;;0.82;;
71162;SDS011;58858;50.948;6.566;2024-02-26T06:35:32;2.15;;;1.20;;
71162;SDS011;58858;50.948;6.566;2024-02-26T06:45:33;2.55;;;1.67;;
71162;SDS011;58858;50.948;6.566;2024-02-26T06:55:34;2.45;;;1.65;;
71162;SDS011;58858;50.948;6.566;2024-02-26T07:05:35;3.42;;;1.05;;
71162;SDS011;58858;50.948;6.566;2024-02-26T07:15:36;2.05;;;1.30;;
71162;SDS011;58858;50.948;6.566;2024-02-26T07:25:38;2.65;;;1.15;;
71162;SDS011;58858;50.948;6.566;2024-02-26T07:35:43;1.48;;;1.02;;
71162;SDS011;58858;50.948;6.566;2024-02-26T07:45:46;2.03;;;1.42;;
71162;SDS011;58858;50.948;6.566;2024-02-26T07:55:47;2.53;;;1.70;;
71162;SDS011;58858;50.948;6.566;2024-02-26T08:05:48;3.90;;;1.27;;
71162;SDS011;58858;50.948;6.566;2024-02-26T08:15:49;2.17;;;1.60;;
71162;SDS011;58858;50.948;6.566;2024-02-26T08:25:50;2.42;;;1.50;;
71162;SDS011;58858;50.948;6.566;2024-02-26T08:35:52;3.25;;;1.90;;
71162;SDS011;58858;50.948;6.566;2024-02-26T08:45:53;2.75;;;1.75;;
71162;SDS011;58858;50.948;6.566;2024-02-26T08:55:55;2.92;;;1.48;;
71162;SDS011;58858;50.948;6.566;2024-02-26T09:05:56;2.90;;;1.50;;
71162;SDS011;58858;50.948;6.566;2024-02-26T09:15:58;2.42;;;1.13;;
71162;SDS011;58858;50.948;6.566;2024-02-26T09:26:01;3.75;;;1.33;;
71162;SDS011;58858;50.948;6.566;2024-02-26T09:36:09;4.57;;;1.17;;
71162;SDS011;58858;50.948;6.566;2024-02-26T09:46:12;2.15;;;1.30;;
71162;SDS011;58858;50.948;6.566;2024-02-26T09:56:13;3.88;;;1.30;;
71162;SDS011;58858;50.948;6.566;2024-02-26T10:06:15;3.30;;;1.45;;
71162;SDS011;58858;50.948;6.566;2024-02-26T10:16:16;3.53;;;1.70;;
71162;SDS011;58858;50.948;6.566;2024-02-26T10:26:26;3.22;;;2.20;;
71162;SDS011;58858;50.948;6.566;2024-02-26T10:36:27;3.42;;;1.98;;
71162;SDS011;58858;50.948;6.566;2024-02-26T10:46:28;2.42;;;1.77;;
71162;SDS011;58858;50.948;6.566;2024-02-26T10:56:29;3.33;;;2.08;;
71162;SDS011;58858;50.948;6.566;2024-02-26T11:06:31;4.28;;;1.85;;
71162;SDS011;58858;50.948;6.566;2024-02-26T11:16:35;2.28;;;1.58;;
71162;SDS011;58858;50.948;6.566;2024-02-26T11:37:08;3.03;;;2.30;;
71162;SDS011;58858;50.948;6.566;2024-02-26T11:47:13;4.30;;;2.05;;
71162;SDS011;58858;50.948;6.566;2024-02-26T12:07:28;3.72;;;2.03;;
71162;SDS011;58858;50.948;6.566;2024-02-26T12:17:30;3.15;;;2.53;;
71162;SDS011;58858;50.948;6.566;2024-02-26T12:27:31;7.07;;;2.33;;
71162;SDS011;58858;50.948;6.566;2024-02-26T12:37:32;3.38;;;1.70;;
71162;SDS011;58858;50.948;6.566;2024-02-26T12:47:34;4.00;;;2.13;;
71162;SDS011;58858;50.948;6.566;2024-02-26T12:57:37;3.58;;;1.92;;
71162;SDS011;58858;50.948;6.566;2024-02-26T13:07:42;4.05;;;2.17;;
71162;SDS011;58858;50.948;6.566;2024-02-26T13:17:44;3.28;;;1.58;;
71162;SDS011;58858;50.948;6.566;2024-02-26T13:27:46;4.82;;;2.40;;
71162;SDS011;58858;50.948;6.566;2024-02-26T13:37:48;6.57;;;4.00;;
71162;SDS011;58858;50.948;6.566;2024-02-26T13:47:49;4.75;;;3.33;;
71162;SDS011;58858;50.948;6.566;2024-02-26T13:57:50;7.68;;;3.88;;
71162;SDS011;58858;50.948;6.566;2024-02-26T14:07:54;8.00;;;5.10;;
71162;SDS011;58858;50.948;6.566;2024-02-26T14:17:56;11.15;;;6.25;;
71162;SDS011;58858;50.948;6.566;2024-02-26T14:28:00;13.03;;;7.73;;
71162;SDS011;58858;50.948;6.566;2024-02-26T14:38:01;12.63;;;8.40;;
71162;SDS011;58858;50.948;6.566;2024-02-26T14:48:02;12.85;;;7.47;;
71162;SDS011;58858;50.948;6.566;2024-02-26T14:58:03;11.30;;;7.53;;
71162;SDS011;58858;50.948;6.566;2024-02-26T15:08:05;10.50;;;8.07;;
71162;SDS011;58858;50.948;6.566;2024-02-26T15:18:12;13.60;;;8.05;;
71162;SDS011;58858;50.948;6.566;2024-02-26T15:28:16;11.73;;;8.07;;
71162;SDS011;58858;50.948;6.566;2024-02-26T15:38:17;9.88;;;6.72;;
71162;SDS011;58858;50.948;6.566;2024-02-26T15:48:18;9.90;;;6.68;;
71162;SDS011;58858;50.948;6.566;2024-02-26T15:58:19;10.32;;;6.60;;
71162;SDS011;58858;50.948;6.566;2024-02-26T16:08:21;9.45;;;6.70;;
71162;SDS011;58858;50.948;6.566;2024-02-26T16:18:23;9.38;;;6.05;;
71162;SDS011;58858;50.948;6.566;2024-02-26T16:28:24;10.80;;;5.85;;
71162;SDS011;58858;50.948;6.566;2024-02-26T16:38:27;12.95;;;6.43;;
71162;SDS011;58858;50.948;6.566;2024-02-26T16:48:33;9.30;;;5.68;;
71162;SDS011;58858;50.948;6.566;2024-02-26T16:58:35;9.95;;;5.18;;
71162;SDS011;58858;50.948;6.566;2024-02-26T17:08:36;8.48;;;4.30;;
71162;SDS011;58858;50.948;6.566;2024-02-26T17:18:38;6.03;;;3.78;;
71162;SDS011;58858;50.948;6.566;2024-02-26T17:28:40;8.13;;;3.95;;
71162;SDS011;58858;50.948;6.566;2024-02-26T17:38:42;4.88;;;3.05;;
71162;SDS011;58858;50.948;6.566;2024-02-26T17:48:45;4.80;;;3.72;;
71162;SDS011;58858;50.948;6.566;2024-02-26T17:58:46;4.57;;;2.92;;
71162;SDS011;58858;50.948;6.566;2024-02-26T18:08:47;5.45;;;3.20;;
71162;SDS011;58858;50.948;6.566;2024-02-26T18:18:48;4.28;;;2.95;;
71162;SDS011;58858;50.948;6.566;2024-02-26T18:28:49;7.70;;;4.07;;
71162;SDS011;58858;50.948;6.566;2024-02-26T18:38:51;6.68;;;4.00;;
71162;SDS011;58858;50.948;6.566;2024-02-26T18:48:53;4.60;;;3.25;;
71162;SDS011;58858;50.948;6.566;2024-02-26T18:58:56;4.53;;;3.38;;
71162;SDS011;58858;50.948;6.566;2024-02-26T19:08:58;6.22;;;3.35;;
71162;SDS011;58858;50.948;6.566;2024-02-26T19:18:59;6.35;;;3.92;;
71162;SDS011;58858;50.948;6.566;2024-02-26T19:29:03;4.20;;;3.10;;
71162;SDS011;58858;50.948;6.566;2024-02-26T19:39:05;4.63;;;3.13;;
71162;SDS011;58858;50.948;6.566;2024-02-26T19:49:06;4.22;;;2.70;;
71162;SDS011;58858;50.948;6.566;2024-02-26T19:59:07;4.55;;;2.38;;
71162;SDS011;58858;50.948;6.566;2024-02-26T20:09:08;4.18;;;2.50;;
71162;SDS011;58858;50.948;6.566;2024-02-26T20:19:10;3.78;;;2.25;;
71162;SDS011;58858;50.948;6.566;2024-02-26T20:29:13;2.88;;;2.42;;
71162;SDS011;58858;50.948;6.566;2024-02-26T20:39:15;4.28;;;3.10;;
71162;SDS011;58858;50.948;6.566;2024-02-26T20:49:16;4.03;;;3.00;;
71162;SDS011;58858;50.948;6.566;2024-02-26T20:59:18;5.05;;;3.80;;
71162;SDS011;58858;50.948;6.566;2024-02-26T21:09:19;8.98;;;5.25;;
71162;SDS011;58858;50.948;6.566;2024-02-26T21:19:20;9.00;;;6.30;;
71162;SDS011;58858;50.948;6.566;2024-02-26T21:29:21;11.60;;;8.65;;
71162;SDS011;58858;50.948;6.566;2024-02-26T21:39:22;12.57;;;8.60;;
71162;SDS011;58858;50.948;6.566;2024-02-26T21:49:27;13.27;;;9.10;;
71162;SDS011;58858;50.948;6.566;2024-02-26T21:59:28;12.13;;;8.52;;
71162;SDS011;58858;50.948;6.566;2024-02-26T22:09:29;12.73;;;8.88;;
71162;SDS011;58858;50.948;6.566;2024-02-26T22:19:30;14.63;;;9.55;;
71162;SDS011;58858;50.948;6.566;2024-02-26T22:29:31;15.18;;;9.80;;
71162;SDS011;58858;50.948;6.566;2024-02-26T22:39:32;17.13;;;10.15;;
71162;SDS011;58858;50.948;6.566;2024-02-26T22:49:34;14.98;;;10.75;;
71162;SDS011;58858;50.948;6.566;2024-02-26T22:59:39;20.80;;;13.82;;
71162;SDS011;58858;50.948;6.566;2024-02-26T23:09:40;19.25;;;13.82;;
71162;SDS011;58858;50.948;6.566;2024-02-26T23:19:42;21.40;;;14.63;;
71162;SDS011;58858;50.948;6.566;2024-02-26T23:29:43;22.55;;;15.85;;
71162;SDS011;58858;50.948;6.566;2024-02-26T23:39:45;22.77;;;16.17;;
71162;SDS011;58858;50.948;6.566;2024-02-26T23:49:46;25.08;;;17.27;;
71162;SDS011;58858;50.948;6.566;2024-02-26T23:59:47;23.20;;;18.20;;
